Time;durP1;ratioP1;P1;durP2;ratioP2;P2;SDS_P1;SDS_P2;PMS_P1;PMS_P2;Temp;Humidity;BMP_temperature;BMP_pressure;BME280_temperature;BME280_humidity;BME280_pressure;Samples;Min_cycle;Max_cycle;Signal;HPM_P1;HPM_P2
2023/06/08 00:00:16;;;;;;;11.98;5.57;;;25.10;58.80;;;;;;7386809;19;19999;-75
2023/06/08 00:02:45;;;;;;;6.50;4.97;;;25.10;58.90;;;;;;7408154;19;20017;-75
2023/06/08 00:05:17;;;;;;;11.13;5.10;;;25.10;59.00;;;;;;7385314;19;20007;-75
2023/06/08 00:07:46;;;;;;;11.25;5.43;;;25.10;59.10;;;;;;7386274;19;20028;-75
2023/06/08 00:10:15;;;;;;;7.25;5.30;;;25.10;59.10;;;;;;7387774;19;20007;-76
2023/06/08 00:12:44;;;;;;;9.82;5.25;;;25.10;59.20;;;;;;7386087;19;20028;-75
2023/06/08 00:15:13;;;;;;;14.95;5.53;;;25.10;59.30;;;;;;7384985;19;20043;-76
2023/06/08 00:17:43;;;;;;;9.30;5.18;;;25.10;59.40;;;;;;7410778;19;20264;-75
2023/06/08 00:20:16;;;;;;;8.53;5.70;;;25.10;59.40;;;;;;7388882;19;20002;-76
2023/06/08 00:22:47;;;;;;;11.27;6.05;;;25.00;59.20;;;;;;7389558;19;20259;-76
2023/06/08 00:25:16;;;;;;;;;;;25.00;59.30;;;;;;7386407;19;20358;-76
2023/06/08 00:27:44;;;;;;;11.80;5.82;;;25.00;59.50;;;;;;7385373;19;19911;-75
2023/06/08 00:30:15;;;;;;;9.35;5.53;;;24.90;59.50;;;;;;7385721;19;20023;-76
2023/06/08 00:32:44;;;;;;;9.00;5.20;;;24.90;59.60;;;;;;7407458;19;20035;-76
2023/06/08 00:35:15;;;;;;;10.88;5.53;;;24.90;59.70;;;;;;7387340;19;20075;-76
2023/06/08 00:37:44;;;;;;;12.30;5.80;;;24.80;59.90;;;;;;7388598;19;20016;-76
2023/06/08 00:40:14;;;;;;;14.38;5.82;;;24.80;60.10;;;;;;7387891;19;20390;-76
2023/06/08 00:42:43;;;;;;;13.05;5.72;;;24.70;60.20;;;;;;7383814;19;20034;-76
2023/06/08 00:45:13;;;;;;;12.60;5.25;;;24.70;60.50;;;;;;7385468;19;20024;-76
2023/06/08 00:47:42;;;;;;;14.38;5.80;;;24.70;61.10;;;;;;7406279;19;20367;-76
2023/06/08 00:50:12;;;;;;;10.95;5.53;;;24.60;61.10;;;;;;7383871;19;20006;-76
2023/06/08 00:52:44;;;;;;;12.70;5.18;;;24.40;61.30;;;;;;7384503;19;20070;-76
2023/06/08 00:55:13;;;;;;;9.27;5.72;;;24.40;61.50;;;;;;7383114;19;20003;-76
2023/06/08 00:57:47;;;;;;;10.50;5.80;;;24.30;61.70;;;;;;7385512;19;20006;-76
2023/06/08 01:00:17;;;;;;;12.43;6.13;;;24.30;61.80;;;;;;7383788;19;20023;-76
2023/06/08 01:02:47;;;;;;;10.43;5.15;;;24.20;62.00;;;;;;7416366;19;20003;-76
2023/06/08 01:05:16;;;;;;;12.10;5.50;;;24.20;62.10;;;;;;7393322;19;20251;-76
2023/06/08 01:08:04;;;;;;;10.15;5.93;;;24.10;62.30;;;;;;7384646;19;20009;-76
2023/06/08 01:10:40;;;;;;;13.07;5.97;;;24.10;62.50;;;;;;7384045;19;20240;-76
2023/06/08 01:13:15;;;;;;;11.35;5.97;;;24.10;62.70;;;;;;7384291;19;20062;-75
2023/06/08 01:15:47;;;;;;;11.32;5.65;;;24.00;62.80;;;;;;7383217;19;20006;-76
2023/06/08 01:18:18;;;;;;;12.13;6.80;;;24.00;63.00;;;;;;7382434;19;20025;-75
2023/06/08 01:21:07;;;;;;;12.80;5.78;;;23.70;63.30;;;;;;7405634;19;20003;-76
2023/06/08 01:23:56;;;;;;;10.23;6.20;;;23.70;63.80;;;;;;7383747;19;20013;-76
2023/06/08 01:26:28;;;;;;;9.38;5.70;;;23.60;64.00;;;;;;7386923;19;20303;-76
2023/06/08 01:28:58;;;;;;;10.93;5.88;;;23.60;64.10;;;;;;7386822;19;20011;-76
2023/06/08 01:31:28;;;;;;;10.75;6.30;;;23.60;64.10;;;;;;7386280;19;20007;-76
2023/06/08 01:33:57;;;;;;;9.75;5.53;;;23.70;65.10;;;;;;7382292;19;20010;-76
2023/06/08 01:36:31;;;;;;;11.20;5.82;;;23.70;64.30;;;;;;7381736;19;20077;-76
2023/06/08 01:39:08;;;;;;;11.38;6.30;;;23.70;64.40;;;;;;7384904;19;20015;-76
2023/06/08 01:41:40;;;;;;;8.80;5.90;;;23.60;64.40;;;;;;7406401;19;20019;-76
2023/06/08 01:44:12;;;;;;;15.70;6.45;;;23.60;64.60;;;;;;7386045;19;20027;-76
2023/06/08 01:46:41;;;;;;;11.68;6.28;;;23.50;64.70;;;;;;7386110;19;20011;-76
2023/06/08 01:49:12;;;;;;;11.93;5.93;;;23.50;65.00;;;;;;7385087;19;20007;-76
2023/06/08 01:51:41;;;;;;;8.60;6.35;;;23.50;65.10;;;;;;7382903;19;20003;-76
2023/06/08 01:54:12;;;;;;;8.07;5.75;;;23.50;65.20;;;;;;7382431;19;20023;-76
2023/06/08 01:56:41;;;;;;;10.95;6.18;;;23.50;65.30;;;;;;7402697;19;20011;-76
2023/06/08 01:59:10;;;;;;;11.20;6.68;;;23.40;65.40;;;;;;7381984;19;20010;-76
2023/06/08 02:01:39;;;;;;;9.00;6.10;;;23.40;65.50;;;;;;7382049;19;20011;-76
2023/06/08 02:04:07;;;;;;;12.45;6.32;;;23.40;65.60;;;;;;7383095;19;20003;-76
2023/06/08 02:06:36;;;;;;;9.93;6.40;;;23.40;65.80;;;;;;7381397;19;20003;-76
2023/06/08 02:09:05;;;;;;;12.20;6.43;;;23.40;65.80;;;;;;7381912;19;20035;-76
2023/06/08 02:11:38;;;;;;;15.60;6.72;;;23.30;65.80;;;;;;7402150;19;20014;-76
2023/06/08 02:14:07;;;;;;;8.90;6.15;;;23.20;66.10;;;;;;7381462;19;20006;-75
2023/06/08 02:16:38;;;;;;;11.25;6.53;;;23.30;66.20;;;;;;7382373;19;20015;-75
2023/06/08 02:19:08;;;;;;;;;;;23.30;66.20;;;;;;7383240;19;20006;-76
2023/06/08 02:21:37;;;;;;;8.30;6.15;;;23.30;66.40;;;;;;7385345;19;19931;-76
2023/06/08 02:24:07;;;;;;;11.88;6.63;;;23.30;66.50;;;;;;7381655;19;20010;-75
2023/06/08 02:26:38;;;;;;;15.73;7.63;;;23.30;66.60;;;;;;7401781;19;20027;-76
2023/06/08 02:29:07;;;;;;;13.48;6.90;;;23.20;66.60;;;;;;7381502;19;20013;-75
2023/06/08 02:31:35;;;;;;;15.18;6.70;;;23.20;66.70;;;;;;7381292;19;20019;-76
2023/06/08 02:34:04;;;;;;;12.45;6.45;;;23.10;66.70;;;;;;7384249;19;20006;-76
2023/06/08 02:36:33;;;;;;;9.93;6.38;;;23.10;66.80;;;;;;7382626;19;20374;-76
2023/06/08 02:39:02;;;;;;;14.55;6.93;;;23.10;66.90;;;;;;7383983;19;20007;-76
2023/06/08 02:41:31;;;;;;;9.60;6.70;;;23.10;67.00;;;;;;7402828;19;20228;-75
2023/06/08 02:44:02;;;;;;;11.13;6.90;;;23.00;67.30;;;;;;7380552;19;20377;-76
2023/06/08 02:46:32;;;;;;;;;;;23.00;67.40;;;;;;7382033;19;20019;-76
2023/06/08 02:49:01;;;;;;;13.98;6.78;;;23.00;67.50;;;;;;7380892;19;19915;-75
2023/06/08 02:51:32;;;;;;;12.50;7.03;;;22.90;67.60;;;;;;7383016;19;20057;-75
2023/06/08 02:54:01;;;;;;;;;;;22.90;67.90;;;;;;7385018;19;20011;-76
2023/06/08 02:56:29;;;;;;;11.82;7.95;;;22.90;68.00;;;;;;7403985;19;19919;-76
2023/06/08 02:58:58;;;;;;;18.55;7.97;;;22.80;68.20;;;;;;7392642;19;20035;-75
2023/06/08 03:01:30;;;;;;;12.80;7.40;;;22.80;68.50;;;;;;7394535;19;19998;-75
2023/06/08 03:03:59;;;;;;;10.00;7.18;;;22.70;68.50;;;;;;7383071;19;20003;-76
2023/06/08 03:06:36;;;;;;;12.68;7.20;;;22.70;68.70;;;;;;7381704;19;20006;-75
2023/06/08 03:09:04;;;;;;;13.57;7.03;;;22.70;68.90;;;;;;7381656;19;20007;-75
2023/06/08 03:11:33;;;;;;;11.68;7.18;;;22.60;68.80;;;;;;7404048;19;20011;-75
2023/06/08 03:14:03;;;;;;;12.05;6.85;;;22.60;69.00;;;;;;7384175;19;20007;-75
2023/06/08 03:16:35;;;;;;;10.05;6.53;;;22.60;69.10;;;;;;7389348;19;19999;-75
2023/06/08 03:19:04;;;;;;;11.57;7.38;;;22.50;69.20;;;;;;7390755;19;20288;-75
2023/06/08 03:21:32;;;;;;;10.45;6.85;;;22.50;69.20;;;;;;7389673;19;20002;-75
2023/06/08 03:24:01;;;;;;;10.15;7.03;;;22.50;69.10;;;;;;7389615;19;20006;-75
2023/06/08 03:26:30;;;;;;;13.55;7.72;;;22.50;69.30;;;;;;7411549;19;20006;-75
2023/06/08 03:28:59;;;;;;;11.88;6.57;;;22.40;69.50;;;;;;7388502;19;20019;-75
2023/06/08 03:31:29;;;;;;;12.75;7.55;;;22.40;69.70;;;;;;7389561;19;20484;-75
2023/06/08 03:34:00;;;;;;;14.75;7.43;;;22.40;69.70;;;;;;7390367;19;20077;-75
2023/06/08 03:36:33;;;;;;;10.80;7.35;;;22.40;69.90;;;;;;7390599;19;20023;-75
2023/06/08 03:39:02;;;;;;;12.50;7.43;;;22.40;70.00;;;;;;7389292;19;20007;-75
2023/06/08 03:41:31;;;;;;;15.77;7.55;;;22.40;69.90;;;;;;7422225;19;20002;-75
2023/06/08 03:44:01;;;;;;;11.50;7.40;;;22.40;69.70;;;;;;7401003;19;20003;-75
2023/06/08 03:46:30;;;;;;;13.68;7.53;;;22.40;69.70;;;;;;7392105;19;20380;-75
2023/06/08 03:49:01;;;;;;;17.15;7.60;;;22.40;69.90;;;;;;7390209;19;19998;-75
2023/06/08 03:51:30;;;;;;;;;;;22.40;69.90;;;;;;7386077;19;19998;-75
2023/06/08 03:53:58;;;;;;;12.13;8.13;;;22.40;69.70;;;;;;7405161;19;19958;-75
2023/06/08 03:56:28;;;;;;;12.02;7.60;;;22.40;69.70;;;;;;7410847;19;20028;-75
2023/06/08 03:58:56;;;;;;;17.30;9.20;;;22.40;69.90;;;;;;7387394;19;20007;-75
2023/06/08 04:01:27;;;;;;;19.13;8.65;;;22.30;70.30;;;;;;7390258;19;19999;-75
2023/06/08 04:03:55;;;;;;;16.80;8.45;;;22.30;70.60;;;;;;7389404;19;20255;-75
2023/06/08 04:06:33;;;;;;;19.35;8.25;;;22.30;70.60;;;;;;7387686;19;20414;-75
2023/06/08 04:09:02;;;;;;;14.07;9.05;;;22.30;70.80;;;;;;7385958;19;20036;-75
2023/06/08 04:11:31;;;;;;;17.98;10.02;;;22.30;70.90;;;;;;7408610;19;20070;-75
2023/06/08 04:13:59;;;;;;;19.80;9.70;;;22.30;71.10;;;;;;7385388;19;20002;-75
2023/06/08 04:16:28;;;;;;;16.48;9.95;;;22.30;71.10;;;;;;7384273;19;20002;-75
2023/06/08 04:18:57;;;;;;;18.77;10.43;;;22.30;71.20;;;;;;7384695;19;19999;-75
2023/06/08 04:21:28;;;;;;;24.30;9.40;;;22.30;71.20;;;;;;7386256;19;20002;-75
2023/06/08 04:23:57;;;;;;;33.03;10.35;;;22.30;71.30;;;;;;7404940;19;20014;-75
2023/06/08 04:26:25;;;;;;;20.75;9.85;;;22.30;71.40;;;;;;7384100;19;20062;-75
2023/06/08 04:28:54;;;;;;;16.55;9.65;;;22.30;71.40;;;;;;7384814;19;20032;-75
2023/06/08 04:31:23;;;;;;;24.20;10.35;;;22.40;71.40;;;;;;7385580;19;20031;-75
2023/06/08 04:33:54;;;;;;;18.80;10.80;;;22.40;71.30;;;;;;7385604;19;20019;-75
2023/06/08 04:36:22;;;;;;;17.80;10.32;;;22.40;71.10;;;;;;7384606;19;20006;-75
2023/06/08 04:38:56;;;;;;;19.60;10.73;;;22.40;71.20;;;;;;7406049;19;20354;-75
2023/06/08 04:41:28;;;;;;;18.25;10.02;;;22.40;71.10;;;;;;7384860;19;20010;-75
2023/06/08 04:44:01;;;;;;;17.77;11.40;;;22.40;71.10;;;;;;7384925;19;20018;-75
2023/06/08 04:46:30;;;;;;;21.10;10.70;;;22.40;71.20;;;;;;7385471;19;20003;-75
2023/06/08 04:48:59;;;;;;;22.05;10.45;;;22.50;71.10;;;;;;7385308;19;20003;-75
2023/06/08 04:51:29;;;;;;;19.02;10.88;;;22.50;70.90;;;;;;7386856;19;20006;-76
2023/06/08 04:54:04;;;;;;;26.77;10.73;;;22.60;70.80;;;;;;7408467;19;20007;-76
2023/06/08 04:56:33;;;;;;;20.63;10.27;;;22.60;70.90;;;;;;7408225;19;20013;-76
2023/06/08 04:59:02;;;;;;;24.65;11.35;;;22.70;70.80;;;;;;7385368;19;20006;-77
2023/06/08 05:01:31;;;;;;;19.13;10.57;;;22.70;70.80;;;;;;7384919;19;20007;-76
2023/06/08 05:04:00;;;;;;;20.80;11.23;;;22.70;70.90;;;;;;7384815;19;20012;-76
2023/06/08 05:06:28;;;;;;;30.45;11.50;;;22.70;70.70;;;;;;7385187;19;20002;-76
2023/06/08 05:09:01;;;;;;;34.53;10.95;;;22.70;70.70;;;;;;7409640;19;20022;-76
2023/06/08 05:11:30;;;;;;;20.83;11.52;;;22.70;70.80;;;;;;7402881;19;20014;-76
2023/06/08 05:13:58;;;;;;;19.58;11.32;;;22.80;70.70;;;;;;7392823;19;20007;-76
2023/06/08 05:16:27;;;;;;;25.25;12.75;;;22.70;71.60;;;;;;7387104;19;20007;-76
2023/06/08 05:18:56;;;;;;;23.63;11.98;;;22.70;70.70;;;;;;7389128;19;20019;-76
2023/06/08 05:21:26;;;;;;;24.63;12.25;;;22.80;70.70;;;;;;7393368;19;20006;-76
2023/06/08 05:23:54;;;;;;;31.05;13.60;;;22.80;70.50;;;;;;7418501;19;20014;-76
2023/06/08 05:26:28;;;;;;;21.08;12.15;;;22.90;70.60;;;;;;7387277;19;20007;-76
2023/06/08 05:28:56;;;;;;;21.92;13.05;;;22.90;70.50;;;;;;7383781;19;20268;-76
2023/06/08 05:31:28;;;;;;;25.45;13.10;;;22.90;70.70;;;;;;7382957;19;20003;-76
2023/06/08 05:33:56;;;;;;;25.42;12.85;;;22.90;70.80;;;;;;7383472;19;20010;-76
2023/06/08 05:36:25;;;;;;;25.23;13.07;;;22.90;70.80;;;;;;7383450;19;20002;-76
2023/06/08 05:38:54;;;;;;;24.85;13.55;;;23.00;70.80;;;;;;7402562;19;20066;-76
2023/06/08 05:41:25;;;;;;;30.85;14.48;;;23.00;70.80;;;;;;7382263;19;20256;-75
2023/06/08 05:43:54;;;;;;;32.75;14.95;;;23.00;70.70;;;;;;7382804;19;20031;-75
2023/06/08 05:46:26;;;;;;;20.70;13.85;;;23.10;70.70;;;;;;7382064;19;20044;-76
2023/06/08 05:48:54;;;;;;;27.95;14.05;;;23.10;70.70;;;;;;7382735;19;20006;-76
2023/06/08 05:51:25;;;;;;;25.23;14.55;;;23.10;70.70;;;;;;7381592;19;20106;-76
2023/06/08 05:53:53;;;;;;;28.08;14.52;;;23.20;70.80;;;;;;7404499;19;20010;-76
2023/06/08 05:56:25;;;;;;;31.17;14.93;;;23.20;70.80;;;;;;7381685;19;20007;-76
2023/06/08 05:58:54;;;;;;;38.65;15.65;;;23.20;70.80;;;;;;7382584;19;20002;-76
2023/06/08 06:01:23;;;;;;;41.45;16.13;;;23.30;71.00;;;;;;7385868;19;20002;-76
2023/06/08 06:03:52;;;;;;;42.40;16.38;;;23.30;70.90;;;;;;7385705;19;20051;-76
2023/06/08 06:06:21;;;;;;;32.08;16.55;;;23.30;70.90;;;;;;7385401;19;20023;-77
2023/06/08 06:08:49;;;;;;;27.30;16.08;;;23.30;71.00;;;;;;7402670;19;20019;-76
2023/06/08 06:11:18;;;;;;;35.17;16.30;;;23.40;71.10;;;;;;7381648;19;20003;-76
2023/06/08 06:13:49;;;;;;;29.40;15.00;;;23.40;71.00;;;;;;7385623;19;20015;-76
2023/06/08 06:16:18;;;;;;;;;;;23.50;71.10;;;;;;7382739;19;20007;-76
2023/06/08 06:18:47;;;;;;;41.97;16.98;;;23.60;71.00;;;;;;7385612;19;20164;-75
2023/06/08 06:21:16;;;;;;;60.20;17.73;;;23.60;70.90;;;;;;7385163;19;20029;-74
2023/06/08 06:23:46;;;;;;;46.83;19.60;;;23.60;71.10;;;;;;7405457;19;20010;-76
2023/06/08 06:26:15;;;;;;;190.75;29.42;;;23.60;71.40;;;;;;7381256;19;20006;-76
2023/06/08 06:28:43;;;;;;;39.30;19.30;;;23.60;71.50;;;;;;7381902;19;20002;-76
2023/06/08 06:31:16;;;;;;;54.70;18.80;;;23.60;71.40;;;;;;7382170;19;20063;-76
2023/06/08 06:33:45;;;;;;;30.65;17.77;;;23.60;71.40;;;;;;7382023;19;20003;-77
2023/06/08 06:36:13;;;;;;;34.38;18.48;;;23.70;71.50;;;;;;7381534;19;20015;-76
2023/06/08 06:38:42;;;;;;;54.33;19.15;;;23.70;71.60;;;;;;7402547;19;20014;-76
2023/06/08 06:41:11;;;;;;;76.63;21.63;;;23.80;71.50;;;;;;7380831;19;19999;-76
2023/06/08 06:43:39;;;;;;;33.30;18.70;;;23.80;71.40;;;;;;7381678;19;20054;-75
2023/06/08 06:46:08;;;;;;;39.90;18.52;;;23.90;71.50;;;;;;7381778;19;20010;-76
2023/06/08 06:48:39;;;;;;;38.30;19.45;;;23.90;71.20;;;;;;7382677;19;20036;-76
2023/06/08 06:51:08;;;;;;;;;;;23.90;71.30;;;;;;7382033;19;20018;-75
2023/06/08 06:53:36;;;;;;;35.58;18.25;;;24.00;71.20;;;;;;7401955;19;19914;-76
2023/06/08 06:56:05;;;;;;;34.38;19.63;;;24.00;71.00;;;;;;7380221;19;19999;-76
2023/06/08 06:58:34;;;;;;;34.90;19.15;;;24.00;71.20;;;;;;7381643;19;20006;-76
2023/06/08 07:01:03;;;;;;;37.35;20.10;;;24.00;71.30;;;;;;7381888;19;20019;-76
2023/06/08 07:03:33;;;;;;;37.15;19.05;;;24.10;71.20;;;;;;7383250;19;20011;-76
2023/06/08 07:06:04;;;;;;;31.48;19.63;;;24.10;71.20;;;;;;7385651;19;20232;-75
2023/06/08 07:08:35;;;;;;;41.13;19.70;;;24.10;71.50;;;;;;7402328;19;20003;-76
2023/06/08 07:11:11;;;;;;;39.23;20.00;;;24.10;72.20;;;;;;7384164;19;19999;-76
2023/06/08 07:13:43;;;;;;;32.58;18.67;;;24.10;71.20;;;;;;7384952;19;20009;-76
2023/06/08 07:16:13;;;;;;;34.70;21.00;;;24.10;71.10;;;;;;7385047;19;20066;-76
2023/06/08 07:18:42;;;;;;;38.13;21.92;;;24.20;71.10;;;;;;7384210;19;20011;-76
2023/06/08 07:21:14;;;;;;;33.97;20.00;;;24.20;71.00;;;;;;7399902;19;20017;-75
2023/06/08 07:23:44;;;;;;;37.58;21.45;;;24.20;71.10;;;;;;7424797;19;20054;-75
2023/06/08 07:26:13;;;;;;;34.17;20.40;;;24.20;71.30;;;;;;7389844;19;20020;-76
2023/06/08 07:28:42;;;;;;;32.40;17.92;;;24.20;71.30;;;;;;7384065;19;20002;-76
2023/06/08 07:31:11;;;;;;;34.17;18.50;;;24.30;71.30;;;;;;7384005;19;20059;-76
2023/06/08 07:33:39;;;;;;;30.52;19.05;;;24.30;71.40;;;;;;7382380;19;20007;-76
2023/06/08 07:36:09;;;;;;;36.22;20.27;;;24.40;71.50;;;;;;7379627;19;20417;-76
2023/06/08 07:38:40;;;;;;;42.00;20.13;;;24.40;71.30;;;;;;7399482;19;20296;-76
2023/06/08 07:41:09;;;;;;;37.08;20.27;;;24.40;71.30;;;;;;7379286;19;20003;-75
2023/06/08 07:43:37;;;;;;;38.70;19.33;;;24.40;71.60;;;;;;7380154;19;20027;-76
2023/06/08 07:46:06;;;;;;;31.98;21.13;;;24.50;71.70;;;;;;7379712;19;20009;-76
2023/06/08 07:48:36;;;;;;;34.47;20.33;;;24.50;71.40;;;;;;7381548;19;20023;-76
2023/06/08 07:51:05;;;;;;;37.95;20.33;;;24.50;71.40;;;;;;7380166;19;20016;-76
2023/06/08 07:53:40;;;;;;;43.92;20.05;;;24.50;71.40;;;;;;7402492;19;20260;-76
2023/06/08 07:56:10;;;;;;;34.33;20.13;;;24.50;71.50;;;;;;7379852;19;20016;-76
2023/06/08 07:58:38;;;;;;;42.10;20.20;;;24.60;71.20;;;;;;7380502;19;20062;-76
2023/06/08 08:01:07;;;;;;;50.00;20.67;;;24.70;71.20;;;;;;7383316;19;20007;-76
2023/06/08 08:03:39;;;;;;;33.58;18.13;;;24.70;71.50;;;;;;7387747;19;20366;-76
2023/06/08 08:06:08;;;;;;;33.95;19.73;;;24.70;71.40;;;;;;7388628;19;20003;-76
2023/06/08 08:08:36;;;;;;;33.65;18.50;;;24.70;71.70;;;;;;7410593;19;20422;-76
2023/06/08 08:11:08;;;;;;;27.73;17.90;;;24.80;71.70;;;;;;7387173;19;20006;-76
2023/06/08 08:13:37;;;;;;;;;;;24.80;71.30;;;;;;7388929;19;20025;-76
2023/06/08 08:16:06;;;;;;;32.08;19.80;;;24.90;71.20;;;;;;7388292;19;19914;-76
2023/06/08 08:18:35;;;;;;;32.70;17.80;;;24.90;70.50;;;;;;7388684;19;20010;-76
2023/06/08 08:21:03;;;;;;;46.13;20.17;;;24.90;70.80;;;;;;7392810;19;20010;-75
2023/06/08 08:23:32;;;;;;;31.50;18.80;;;24.80;70.90;;;;;;7412088;19;20011;-76
2023/06/08 08:26:01;;;;;;;44.72;20.60;;;24.70;71.40;;;;;;7390464;19;20006;-76
2023/06/08 08:28:33;;;;;;;32.03;19.60;;;24.70;71.10;;;;;;7387301;19;20015;-75
2023/06/08 08:31:02;;;;;;;26.50;18.23;;;24.60;71.10;;;;;;7385556;19;20010;-75
2023/06/08 08:33:30;;;;;;;36.85;19.90;;;24.60;71.50;;;;;;7384438;19;20003;-75
2023/06/08 08:35:59;;;;;;;31.35;18.00;;;24.60;71.40;;;;;;7394541;19;20011;-76
2023/06/08 08:38:28;;;;;;;34.25;18.05;;;24.70;71.10;;;;;;7409003;19;20010;-76
2023/06/08 08:41:02;;;;;;;37.67;18.58;;;24.70;71.10;;;;;;7388194;19;20733;-75
2023/06/08 08:43:40;;;;;;;29.02;16.63;;;24.80;70.90;;;;;;7388581;19;20025;-75
2023/06/08 08:46:11;;;;;;;27.67;17.80;;;24.80;71.00;;;;;;7388243;19;20002;-75
2023/06/08 08:48:44;;;;;;;26.70;16.15;;;24.80;70.50;;;;;;7389628;19;20010;-75
2023/06/08 08:51:18;;;;;;;27.15;15.05;;;24.80;70.40;;;;;;7387610;19;20006;-75
2023/06/08 08:53:49;;;;;;;30.13;15.57;;;24.90;70.80;;;;;;7408442;19;20434;-75
2023/06/08 08:56:21;;;;;;;41.03;15.45;;;24.90;70.80;;;;;;7386474;19;20261;-76
2023/06/08 08:58:54;;;;;;;29.35;15.05;;;25.00;71.00;;;;;;7386647;19;20452;-75
2023/06/08 09:01:26;;;;;;;26.45;15.20;;;25.10;70.70;;;;;;7386555;19;20104;-76
2023/06/08 09:03:55;;;;;;;32.63;14.15;;;25.10;70.20;;;;;;7385998;19;20362;-75
2023/06/08 09:06:24;;;;;;;26.67;16.65;;;25.10;69.90;;;;;;7384997;19;20006;-75
2023/06/08 09:08:53;;;;;;;32.28;15.07;;;25.20;70.00;;;;;;7408335;19;20022;-76
2023/06/08 09:11:22;;;;;;;39.90;16.63;;;25.20;70.40;;;;;;7383710;19;20284;-75
2023/06/08 09:14:08;;;;;;;31.70;15.50;;;25.20;70.30;;;;;;7384142;19;20380;-76
2023/06/08 09:16:45;;;;;;;28.20;15.93;;;25.20;70.20;;;;;;7383245;19;20002;-75
2023/06/08 09:19:14;;;;;;;33.80;17.40;;;25.30;70.40;;;;;;7383593;19;19998;-75
2023/06/08 09:21:44;;;;;;;25.77;16.17;;;25.30;70.50;;;;;;7384282;19;20035;-75
2023/06/08 09:24:14;;;;;;;30.90;17.20;;;25.30;69.50;;;;;;7385386;19;20372;-76
2023/06/08 09:26:48;;;;;;;26.33;15.48;;;25.30;69.50;;;;;;7410174;19;20020;-75
2023/06/08 09:29:40;;;;;;;31.38;15.20;;;25.30;69.80;;;;;;7388678;19;20020;-75
2023/06/08 09:32:09;;;;;;;;;;;25.30;69.70;;;;;;7400931;19;20131;-75
2023/06/08 09:34:51;;;;;;;26.45;15.05;;;25.50;69.20;;;;;;7388198;19;20559;-75
2023/06/08 09:37:21;;;;;;;26.88;12.65;;;25.40;69.40;;;;;;7382972;19;20219;-76
2023/06/08 09:39:50;;;;;;;24.27;13.90;;;25.50;68.70;;;;;;7384054;19;20035;-75
2023/06/08 09:42:21;;;;;;;19.50;12.82;;;25.50;68.00;;;;;;7383691;19;20269;-76
2023/06/08 09:45:10;;;;;;;24.23;14.07;;;25.50;67.80;;;;;;7404302;19;20010;-75
2023/06/08 09:47:39;;;;;;;25.00;12.85;;;25.50;68.00;;;;;;7388781;19;20020;-76
2023/06/08 09:50:12;;;;;;;19.83;11.48;;;25.60;68.10;;;;;;7388185;19;20308;-76
2023/06/08 09:52:41;;;;;;;18.08;11.02;;;25.70;67.70;;;;;;7387486;19;20025;-76
2023/06/08 09:55:12;;;;;;;23.08;10.05;;;25.70;66.80;;;;;;7405133;19;20017;-75
2023/06/08 09:57:42;;;;;;;26.55;11.02;;;25.70;66.80;;;;;;7388904;19;20006;-76
2023/06/08 10:00:20;;;;;;;20.00;10.38;;;25.80;66.60;;;;;;7386901;19;20014;-75
2023/06/08 10:03:02;;;;;;;22.58;9.85;;;25.80;66.10;;;;;;7406174;19;20006;-75
2023/06/08 10:05:35;;;;;;;16.92;10.90;;;25.90;66.70;;;;;;7383556;19;20101;-75
2023/06/08 10:08:05;;;;;;;18.70;11.68;;;25.90;66.60;;;;;;7381858;19;20020;-75
2023/06/08 10:10:39;;;;;;;26.48;13.57;;;25.90;66.00;;;;;;7382082;19;20014;-75
2023/06/08 10:13:08;;;;;;;18.77;11.93;;;26.00;65.40;;;;;;7382956;19;20226;-75
2023/06/08 10:15:40;;;;;;;21.23;12.43;;;26.00;64.40;;;;;;7382017;19;20397;-76
2023/06/08 10:18:10;;;;;;;17.73;11.35;;;26.00;65.60;;;;;;7381280;19;20007;-75
2023/06/08 10:20:42;;;;;;;14.43;9.90;;;26.10;66.00;;;;;;7402354;19;20026;-75
2023/06/08 10:23:11;;;;;;;23.17;10.52;;;26.20;64.90;;;;;;7380430;19;20012;-75
2023/06/08 10:25:41;;;;;;;19.55;10.82;;;26.20;64.40;;;;;;7381563;19;20003;-75
2023/06/08 10:28:11;;;;;;;19.83;11.32;;;26.30;65.00;;;;;;7381966;19;20002;-75
2023/06/08 10:30:43;;;;;;;16.23;10.23;;;26.40;65.00;;;;;;7382096;19;20007;-76
2023/06/08 10:33:15;;;;;;;22.90;10.30;;;26.40;65.10;;;;;;7381320;19;20014;-75
2023/06/08 10:36:03;;;;;;;21.75;10.45;;;26.50;64.90;;;;;;7402974;19;20230;-76
2023/06/08 10:38:37;;;;;;;29.30;10.82;;;26.50;63.70;;;;;;7382818;19;20038;-76
2023/06/08 10:41:06;;;;;;;17.00;10.23;;;26.60;64.20;;;;;;7382577;19;20319;-77
2023/06/08 10:43:35;;;;;;;12.77;9.57;;;26.50;63.30;;;;;;7382697;19;20073;-76
2023/06/08 10:46:06;;;;;;;15.27;9.82;;;26.60;62.50;;;;;;7381054;19;20006;-77
2023/06/08 10:48:40;;;;;;;13.32;8.93;;;26.60;62.90;;;;;;7381576;19;20015;-76
2023/06/08 10:51:12;;;;;;;18.08;8.05;;;26.60;63.30;;;;;;7384349;19;20006;-76
2023/06/08 10:53:57;;;;;;;13.68;8.23;;;26.70;62.40;;;;;;7408978;19;20010;-76
2023/06/08 10:56:29;;;;;;;16.10;8.77;;;26.60;61.40;;;;;;7403330;19;20007;-75
2023/06/08 10:58:58;;;;;;;12.60;8.02;;;26.70;62.40;;;;;;7393846;19;20011;-77
2023/06/08 11:01:34;;;;;;;14.68;8.10;;;26.70;60.50;;;;;;7385788;19;20031;-77
2023/06/08 11:04:06;;;;;;;14.48;7.95;;;26.80;60.30;;;;;;7390064;19;20367;-76
2023/06/08 11:06:36;;;;;;;12.82;7.45;;;26.90;59.00;;;;;;7389293;19;20003;-76
2023/06/08 11:09:05;;;;;;;13.63;7.07;;;26.90;59.10;;;;;;7384689;19;20003;-76
2023/06/08 11:11:35;;;;;;;11.88;7.22;;;27.00;58.80;;;;;;7406377;19;20354;-76
2023/06/08 11:14:03;;;;;;;11.68;7.50;;;27.10;58.10;;;;;;7388984;19;20026;-76
2023/06/08 11:16:34;;;;;;;16.42;7.53;;;27.10;57.80;;;;;;7385015;19;20024;-76
2023/06/08 11:19:03;;;;;;;13.35;7.57;;;27.10;58.70;;;;;;7383032;19;20003;-76
2023/06/08 11:21:32;;;;;;;13.82;8.00;;;27.10;58.70;;;;;;7380862;19;20024;-76
2023/06/08 11:24:03;;;;;;;15.07;8.15;;;27.20;58.60;;;;;;7380157;19;20010;-77
2023/06/08 11:26:32;;;;;;;14.48;8.20;;;27.20;58.60;;;;;;7399267;19;20448;-76
2023/06/08 11:29:04;;;;;;;14.32;8.73;;;27.20;59.40;;;;;;7379590;19;19999;-75
2023/06/08 11:31:40;;;;;;;14.13;7.75;;;27.30;59.60;;;;;;7380505;19;20264;-75
2023/06/08 11:34:11;;;;;;;12.63;7.55;;;27.40;59.00;;;;;;7381792;19;20267;-75
2023/06/08 11:36:42;;;;;;;12.25;7.40;;;27.40;58.70;;;;;;7394513;19;20009;-75
2023/06/08 11:39:14;;;;;;;15.63;8.50;;;27.50;57.80;;;;;;7407016;19;20013;-77
2023/06/08 11:41:50;;;;;;;10.65;7.53;;;27.50;57.60;;;;;;7422681;19;20021;-76
2023/06/08 11:44:19;;;;;;;13.48;8.43;;;27.50;58.00;;;;;;7389654;19;20030;-76
2023/06/08 11:46:50;;;;;;;9.77;7.30;;;27.60;58.80;;;;;;7388670;19;20003;-76
2023/06/08 11:49:19;;;;;;;10.98;6.55;;;27.60;58.20;;;;;;7389630;19;20007;-76
2023/06/08 11:51:49;;;;;;;16.58;6.63;;;27.70;57.00;;;;;;7389143;19;20007;-76
2023/06/08 11:54:18;;;;;;;12.02;6.38;;;27.80;56.00;;;;;;7388332;19;20024;-77
2023/06/08 11:56:47;;;;;;;17.63;6.68;;;27.80;55.60;;;;;;7408963;19;20231;-76
2023/06/08 11:59:16;;;;;;;13.85;6.80;;;27.90;55.20;;;;;;7387034;19;20102;-75
2023/06/08 12:02:02;;;;;;;13.27;7.28;;;27.90;55.30;;;;;;7386710;19;20085;-76
2023/06/08 12:04:32;;;;;;;13.68;7.25;;;28.00;55.60;;;;;;7387849;19;20107;-76
2023/06/08 12:07:09;;;;;;;15.88;7.38;;;28.10;55.70;;;;;;7389339;19;19998;-76
2023/06/08 12:09:40;;;;;;;12.20;7.72;;;28.10;56.10;;;;;;7387849;19;20007;-76
2023/06/08 12:12:11;;;;;;;18.77;7.88;;;28.10;55.80;;;;;;7387527;19;20024;-77
2023/06/08 12:14:45;;;;;;;14.52;6.65;;;28.10;56.30;;;;;;7407672;19;20006;-76
2023/06/08 12:17:17;;;;;;;10.40;6.78;;;28.20;55.90;;;;;;7385783;19;20019;-76
2023/06/08 12:19:46;;;;;;;18.73;8.02;;;28.20;55.20;;;;;;7385752;19;20243;-75
2023/06/08 12:22:16;;;;;;;10.38;7.47;;;28.20;54.90;;;;;;7385841;19;20006;-76
2023/06/08 12:24:45;;;;;;;19.65;7.63;;;28.20;55.40;;;;;;7385449;19;20002;-77
2023/06/08 12:27:14;;;;;;;16.42;7.05;;;28.30;55.40;;;;;;7386384;19;20007;-76
2023/06/08 12:29:44;;;;;;;20.88;7.85;;;28.40;54.80;;;;;;7407101;19;20010;-76
2023/06/08 12:32:12;;;;;;;16.27;7.75;;;28.40;53.90;;;;;;7384481;19;20014;-77
2023/06/08 12:34:44;;;;;;;11.10;7.45;;;28.40;54.80;;;;;;7384540;19;20441;-76
2023/06/08 12:37:12;;;;;;;12.45;7.18;;;28.50;54.60;;;;;;7384903;19;20002;-76
2023/06/08 12:39:42;;;;;;;11.23;7.80;;;28.50;54.50;;;;;;7384198;19;20024;-76
2023/06/08 12:42:11;;;;;;;15.88;7.65;;;28.50;54.70;;;;;;7385426;19;20014;-76
2023/06/08 12:44:39;;;;;;;11.23;7.60;;;28.60;54.60;;;;;;7406696;19;20007;-77
2023/06/08 12:47:09;;;;;;;19.25;7.28;;;28.70;54.40;;;;;;7382997;19;20007;-77
2023/06/08 12:49:38;;;;;;;15.50;6.38;;;28.70;53.30;;;;;;7384085;19;20007;-77
2023/06/08 12:52:14;;;;;;;12.50;7.15;;;28.80;52.60;;;;;;7384968;19;20331;-77